Aviation Digital Data Service (ADDS)

Output produced by METARs form (2123 UTC 06 December 2019)
found at http://www.aviationweather.gov/metar/data/
 
Forecast for: LPMA (FUNCHAL/MADEIRA , PT)
Text: TAF LPMA 061700Z 0618/0718 01015KT 9999 SCT015 SCT030
Forecast period: 1800 UTC 06 December 2019 to 1800 UTC 07 December 2019
Forecast type: FROM: standard forecast or significant change
Winds: from the N (10 degrees) at 17 MPH (15 knots; 7.7 m/s)
Visibility: 6 or more miles 10+ km)
Ceiling: at least 12,000 feet AGL
Clouds: scattered clouds at 1500 feet AGL
scattered clouds at 3000 feet AGL
Weather: no significant weather forecast for this period
Text: TEMPO 0618/0621 01020G30KT
Forecast period: 1800 to 2100 UTC 06 December 2019
Forecast type: TEMPORARY: The following changes expected for less than half the time period
Winds: from the N (10 degrees) at 23 MPH (20 knots; 10.3 m/s)
gusting to 34 MPH (30 knots; 15.4 m/s)
Visibility: missing
Ceiling: unknown
Clouds: missing
Weather: no significant weather forecast for this period
Text: PROB40
Forecast period: 2100 UTC 06 December 2019 to 0600 UTC 07 December 2019
Forecast type: TEMPORARY: The following changes expected for less than half the time period
Winds: from the N (10 degrees) at 23 MPH (20 knots; 10.3 m/s)
gusting to 34 MPH (30 knots; 15.4 m/s)
Visibility: missing
Ceiling: 1500 feet AGL
Clouds: broken clouds at 1500 feet AGL
Weather: no significant weather forecast for this period